createdAt,value
2018-01-11T00:01:13.839Z,3.40
2018-01-11T00:03:41.277Z,3.30
2018-01-11T00:06:08.757Z,3.20
2018-01-11T00:08:36.213Z,3.10
2018-01-11T00:11:03.708Z,3.10
2018-01-11T00:13:31.212Z,3.10
2018-01-11T00:15:58.682Z,3.20
2018-01-11T00:18:26.136Z,3.20
2018-01-11T00:20:53.626Z,3.20
2018-01-11T00:23:21.071Z,3.10
2018-01-11T00:25:49.209Z,3.10
2018-01-11T00:28:16.658Z,3.10
2018-01-11T00:30:44.344Z,3.10
2018-01-11T00:33:11.784Z,3.10
2018-01-11T00:35:39.233Z,3.10
2018-01-11T00:38:10.402Z,3.20
2018-01-11T00:40:38.669Z,3.20
2018-01-11T00:43:06.208Z,3.20
2018-01-11T00:45:33.665Z,3.20
2018-01-11T00:48:01.139Z,3.20
2018-01-11T00:50:28.609Z,3.10
2018-01-11T00:52:59.988Z,3.20
2018-01-11T00:55:28.201Z,3.10
2018-01-11T00:57:55.893Z,3.10
2018-01-11T01:00:23.368Z,2.90
2018-01-11T01:02:51.014Z,2.80
2018-01-11T01:05:18.457Z,2.60
2018-01-11T01:07:49.419Z,2.60
2018-01-11T01:10:17.724Z,2.60
2018-01-11T01:12:45.181Z,2.60
2018-01-11T01:15:13.428Z,2.50
2018-01-11T01:17:40.860Z,2.50
2018-01-11T01:20:08.453Z,2.50
2018-01-11T01:22:41.236Z,2.50
2018-01-11T01:25:08.718Z,2.40
2018-01-11T01:27:37.109Z,2.40
2018-01-11T01:30:04.840Z,2.20
2018-01-11T01:32:32.305Z,2.20
2018-01-11T01:34:59.846Z,2.20
2018-01-11T01:37:27.317Z,2.20
2018-01-11T01:39:55.581Z,2.30
2018-01-11T01:42:23.337Z,2.30
2018-01-11T01:44:51.140Z,2.40
2018-01-11T01:47:18.624Z,2.40
2018-01-11T01:49:46.920Z,2.40
2018-01-11T01:52:14.360Z,2.50
2018-01-11T01:54:41.847Z,2.40
2018-01-11T01:57:10.181Z,2.30
2018-01-11T01:59:37.648Z,2.40
2018-01-11T02:02:05.124Z,2.40
2018-01-11T02:04:32.598Z,2.50
2018-01-11T02:07:00.076Z,2.50
2018-01-11T02:09:27.541Z,2.60
2018-01-11T02:11:55.021Z,2.60
2018-01-11T02:14:22.633Z,2.70
2018-01-11T02:16:50.110Z,2.70
2018-01-11T02:19:18.015Z,2.80
2018-01-11T02:21:45.468Z,2.80
2018-01-11T02:24:16.894Z,2.80
2018-01-11T02:26:44.373Z,2.80
2018-01-11T02:29:11.846Z,2.70
2018-01-11T02:31:39.294Z,2.70
2018-01-11T02:34:08.217Z,2.60
2018-01-11T02:36:35.683Z,2.60
2018-01-11T02:39:03.131Z,2.70
2018-01-11T02:41:30.693Z,2.70
2018-01-11T02:46:31.106Z,2.90
2018-01-11T02:48:58.577Z,2.90
2018-01-11T02:51:26.019Z,2.90
2018-01-11T02:53:53.508Z,2.90
2018-01-11T02:56:20.945Z,3.00
2018-01-11T02:58:48.618Z,2.90
2018-01-11T03:01:16.842Z,3.00
2018-01-11T03:03:44.324Z,3.10
2018-01-11T03:06:11.773Z,3.10
2018-01-11T03:08:39.241Z,3.10
2018-01-11T03:11:07.437Z,3.00
2018-01-11T03:13:36.112Z,3.00
2018-01-11T03:16:03.554Z,3.00
2018-01-11T03:18:31.045Z,3.00
2018-01-11T03:21:00.921Z,3.00
2018-01-11T03:23:28.410Z,3.00
2018-01-11T03:25:55.894Z,3.20
2018-01-11T03:28:23.334Z,3.20
2018-01-11T03:30:50.811Z,3.10
2018-01-11T03:33:19.989Z,3.20
2018-01-11T03:35:47.441Z,3.20
2018-01-11T03:38:14.911Z,3.20
2018-01-11T03:40:42.391Z,3.20
2018-01-11T03:43:10.625Z,3.20
2018-01-11T03:45:38.882Z,3.20
2018-01-11T03:48:06.330Z,3.30
2018-01-11T03:50:33.784Z,3.30
2018-01-11T03:53:01.265Z,3.30
2018-01-11T03:55:28.848Z,3.30
2018-01-11T03:57:56.304Z,3.30
2018-01-11T04:00:23.783Z,3.30
2018-01-11T04:02:52.940Z,3.20
2018-01-11T04:05:20.413Z,3.20
2018-01-11T04:07:47.872Z,3.20
2018-01-11T04:10:22.389Z,3.20
2018-01-11T04:12:49.985Z,3.10
2018-01-11T04:15:17.668Z,3.00
2018-01-11T04:17:45.165Z,2.80
2018-01-11T04:20:12.840Z,2.80
2018-01-11T04:22:42.744Z,2.70
2018-01-11T04:25:10.268Z,2.70
2018-01-11T04:27:37.900Z,2.70
2018-01-11T04:30:05.361Z,2.70
2018-01-11T04:32:32.834Z,2.70
2018-01-11T04:35:00.295Z,2.70
2018-01-11T04:37:27.758Z,2.70
2018-01-11T04:39:56.444Z,2.70
2018-01-11T04:42:23.923Z,2.80
2018-01-11T04:44:51.397Z,2.80
2018-01-11T04:47:19.085Z,2.90
2018-01-11T04:49:46.615Z,2.90
2018-01-11T04:52:14.073Z,3.00
2018-01-11T04:54:41.541Z,3.00
2018-01-11T04:57:14.209Z,3.10
2018-01-11T04:59:41.698Z,3.10
2018-01-11T05:02:09.329Z,3.10
2018-01-11T05:04:36.786Z,3.20
2018-01-11T05:07:04.961Z,3.20
2018-01-11T05:09:32.460Z,3.30
2018-01-11T05:11:59.897Z,3.20
2018-01-11T05:14:27.364Z,3.30
2018-01-11T05:16:54.816Z,3.30
2018-01-11T05:19:22.257Z,3.30
2018-01-11T05:21:49.978Z,3.30
2018-01-11T05:24:18.687Z,3.30
2018-01-11T05:26:46.132Z,3.30
2018-01-11T05:29:17.306Z,3.30
2018-01-11T05:31:45.064Z,3.30
2018-01-11T05:34:13.766Z,3.30
2018-01-11T05:36:41.330Z,3.30
2018-01-11T05:39:09.542Z,3.40
2018-01-11T05:41:38.739Z,3.40
2018-01-11T05:44:10.042Z,3.30
2018-01-11T05:46:38.264Z,3.40
2018-01-11T05:49:05.869Z,3.40
2018-01-11T05:51:33.346Z,3.40
2018-01-11T05:54:00.840Z,3.40
2018-01-11T05:56:28.353Z,3.40
2018-01-11T05:58:55.813Z,3.40
2018-01-11T06:01:24.392Z,3.40
2018-01-11T06:03:51.999Z,3.40
2018-01-11T06:06:19.517Z,3.40
2018-01-11T06:08:46.988Z,3.40
2018-01-11T06:11:14.428Z,3.40
2018-01-11T06:13:41.986Z,3.40
2018-01-11T06:16:09.649Z,3.40
2018-01-11T06:18:37.149Z,3.40
2018-01-11T06:21:04.653Z,3.40
2018-01-11T06:23:32.109Z,3.40
2018-01-11T06:26:01.062Z,3.40
2018-01-11T06:28:28.537Z,3.40
2018-01-11T06:30:56.046Z,3.40
2018-01-11T06:33:23.597Z,3.40
2018-01-11T06:35:51.800Z,3.50
2018-01-11T06:38:19.445Z,3.50
2018-01-11T06:40:46.939Z,3.50
2018-01-11T06:43:14.394Z,3.50
2018-01-11T06:45:41.873Z,3.50
2018-01-11T06:48:09.941Z,3.50
2018-01-11T06:50:37.418Z,3.50
2018-01-11T06:53:04.887Z,3.50
2018-01-11T06:55:34.036Z,3.50
2018-01-11T06:58:05.031Z,3.50
2018-01-11T07:00:34.190Z,3.60
2018-01-11T07:03:01.645Z,3.60
2018-01-11T07:05:29.122Z,3.70
2018-01-11T07:07:56.577Z,3.70
2018-01-11T07:10:24.266Z,3.70
2018-01-11T07:12:52.569Z,3.70
2018-01-11T07:15:20.241Z,3.70
2018-01-11T07:17:47.694Z,3.70
2018-01-11T07:20:15.242Z,3.80
2018-01-11T07:22:42.722Z,3.80
2018-01-11T07:25:10.196Z,3.80
2018-01-11T07:27:37.815Z,3.80
2018-01-11T07:30:06.954Z,3.90
2018-01-11T07:32:34.466Z,3.90
2018-01-11T07:35:01.904Z,3.90
2018-01-11T07:37:29.404Z,3.90
2018-01-11T07:39:56.895Z,4.00
2018-01-11T07:42:24.341Z,4.00
2018-01-11T07:44:56.467Z,4.00
2018-01-11T07:47:23.937Z,4.10
2018-01-11T07:49:51.392Z,4.00
2018-01-11T07:52:18.845Z,4.00
2018-01-11T07:54:46.355Z,4.00
2018-01-11T07:57:15.500Z,3.90
2018-01-11T07:59:42.956Z,3.90
2018-01-11T08:02:10.649Z,4.00
2018-01-11T08:04:38.093Z,4.00
2018-01-11T08:07:05.587Z,4.00
2018-01-11T08:09:33.826Z,4.10
2018-01-11T08:12:01.362Z,4.10
2018-01-11T08:14:32.234Z,4.10
2018-01-11T08:16:59.705Z,4.20
2018-01-11T08:19:27.334Z,4.20
2018-01-11T08:21:54.812Z,4.20
2018-01-11T08:24:22.270Z,4.30
2018-01-11T08:26:49.794Z,4.40
2018-01-11T08:29:18.145Z,4.50
2018-01-11T08:31:45.633Z,4.50
2018-01-11T08:34:13.136Z,4.60
2018-01-11T08:36:40.616Z,4.60
2018-01-11T08:39:08.108Z,4.60
2018-01-11T08:41:35.585Z,4.70
2018-01-11T08:44:03.202Z,4.80
2018-01-11T08:46:30.687Z,4.90
2018-01-11T08:48:58.178Z,4.90
2018-01-11T08:51:27.144Z,5.10
2018-01-11T08:53:54.653Z,5.00
2018-01-11T08:56:22.117Z,5.10
2018-01-11T08:58:49.602Z,5.10
2018-01-11T09:01:17.108Z,5.20
2018-01-11T09:03:45.956Z,5.10
2018-01-11T09:06:13.426Z,5.10
2018-01-11T09:08:40.913Z,5.20
2018-01-11T09:11:08.370Z,5.10
2018-01-11T09:13:35.812Z,5.00
2018-01-11T09:16:06.686Z,5.00
2018-01-11T09:18:34.828Z,5.10
2018-01-11T09:21:02.320Z,5.10
2018-01-11T09:23:29.882Z,5.00
2018-01-11T09:25:57.393Z,5.00
2018-01-11T09:28:24.945Z,5.10
2018-01-11T09:30:55.690Z,5.20
2018-01-11T09:33:24.131Z,5.30
2018-01-11T09:35:51.605Z,5.40
2018-01-11T09:38:19.084Z,5.40
2018-01-11T09:40:46.577Z,5.40
2018-01-11T09:43:14.038Z,5.50
2018-01-11T09:45:41.556Z,5.50
2018-01-11T09:48:09.052Z,5.50
2018-01-11T09:50:36.561Z,5.60
2018-01-11T09:53:04.013Z,5.60
2018-01-11T09:55:32.492Z,5.60
2018-01-11T09:57:59.997Z,5.70
2018-01-11T10:00:28.250Z,5.60
2018-01-11T10:02:55.686Z,5.60
2018-01-11T10:05:23.485Z,5.60
2018-01-11T10:07:51.736Z,5.60
2018-01-11T10:10:19.185Z,5.60
2018-01-11T10:12:46.693Z,5.60
2018-01-11T10:15:14.153Z,5.60
2018-01-11T10:17:41.638Z,5.60
2018-01-11T10:20:09.103Z,5.50
2018-01-11T10:22:36.581Z,5.50
2018-01-11T10:25:04.953Z,5.50
2018-01-11T10:27:33.393Z,5.50
2018-01-11T10:30:01.088Z,5.50
2018-01-11T10:32:28.536Z,5.60
2018-01-11T10:34:56.065Z,5.40
2018-01-11T10:37:24.517Z,5.40
2018-01-11T10:39:52.001Z,5.50
2018-01-11T10:42:19.456Z,5.60
2018-01-11T10:47:22.468Z,5.60
2018-01-11T10:49:49.945Z,5.70
2018-01-11T10:52:17.452Z,5.70
2018-01-11T10:54:44.943Z,5.70
2018-01-11T10:57:12.484Z,5.70
2018-01-11T10:59:40.750Z,5.80
2018-01-11T11:02:21.405Z,5.80
2018-01-11T11:04:48.885Z,5.90
2018-01-11T11:07:16.377Z,5.90
2018-01-11T11:09:43.857Z,6.00
2018-01-11T11:12:11.345Z,6.10
2018-01-11T11:14:39.768Z,6.20
2018-01-11T11:17:07.289Z,6.20
2018-01-11T11:19:34.737Z,6.10
2018-01-11T11:22:02.229Z,6.10
2018-01-11T11:24:29.703Z,6.20
2018-01-11T11:26:57.159Z,6.20
2018-01-11T11:29:24.641Z,6.20
2018-01-11T11:31:52.092Z,6.20
2018-01-11T11:34:22.982Z,6.30
2018-01-11T11:36:50.433Z,6.30
2018-01-11T11:39:19.164Z,6.40
2018-01-11T11:41:47.324Z,6.30
2018-01-11T11:44:15.010Z,6.40
2018-01-11T11:46:44.042Z,6.50
2018-01-11T11:49:11.510Z,6.50
2018-01-11T11:51:39.761Z,6.60
2018-01-11T11:54:07.657Z,6.60
2018-01-11T11:56:35.910Z,6.60
2018-01-11T11:59:03.385Z,6.60
2018-01-11T12:01:31.004Z,6.60
2018-01-11T12:04:01.528Z,6.60
2018-01-11T12:06:29.117Z,6.50
2018-01-11T12:08:57.512Z,6.40
2018-01-11T12:11:24.956Z,6.40
2018-01-11T12:13:52.700Z,6.30
2018-01-11T12:16:20.182Z,6.20
2018-01-11T12:18:50.709Z,6.00
2018-01-11T12:21:18.419Z,5.80
2018-01-11T12:23:47.532Z,5.20
2018-01-11T12:26:15.006Z,5.20
2018-01-11T12:28:42.624Z,5.40
2018-01-11T12:31:10.193Z,5.60
2018-01-11T12:33:37.646Z,5.80
2018-01-11T12:36:05.268Z,5.90
2018-01-11T12:38:32.737Z,6.00
2018-01-11T12:41:00.573Z,6.00
2018-01-11T12:43:28.049Z,6.10
2018-01-11T12:45:55.529Z,6.10
2018-01-11T12:48:23.252Z,6.10
2018-01-11T12:50:50.730Z,6.10
2018-01-11T12:53:18.197Z,6.30
2018-01-11T12:55:46.468Z,6.50
2018-01-11T12:58:14.057Z,6.50
2018-01-11T13:00:41.676Z,6.60
2018-01-11T13:03:09.130Z,6.70
2018-01-11T13:05:36.723Z,6.20
2018-01-11T13:08:04.189Z,5.80
2018-01-11T13:10:31.644Z,5.80
2018-01-11T13:12:59.085Z,6.00
2018-01-11T13:15:28.302Z,6.10
2018-01-11T13:17:55.740Z,6.10
2018-01-11T13:20:27.208Z,6.40
2018-01-11T13:22:56.697Z,6.30
2018-01-11T13:25:28.917Z,6.30
2018-01-11T13:27:56.866Z,6.20
2018-01-11T13:30:24.308Z,6.20
2018-01-11T13:32:53.453Z,6.30
2018-01-11T13:35:31.708Z,6.20
2018-01-11T13:38:00.247Z,6.30
2018-01-11T13:40:28.725Z,6.40
2018-01-11T13:42:56.389Z,6.30
2018-01-11T13:45:24.488Z,6.40
2018-01-11T13:47:52.062Z,6.40
2018-01-11T13:50:19.510Z,6.40
2018-01-11T13:52:47.120Z,6.40
2018-01-11T13:55:14.649Z,6.40
2018-01-11T13:57:42.140Z,6.50
2018-01-11T14:00:09.600Z,6.40
2018-01-11T14:02:37.153Z,6.30
2018-01-11T14:05:08.462Z,6.20
2018-01-11T14:07:35.979Z,6.10
2018-01-11T14:10:03.677Z,6.00
2018-01-11T14:12:32.453Z,6.00
2018-01-11T14:15:02.909Z,6.00
2018-01-11T14:17:30.412Z,6.00
2018-01-11T14:19:57.896Z,6.00
2018-01-11T14:22:29.911Z,5.90
2018-01-11T14:24:58.230Z,5.80
2018-01-11T14:27:27.385Z,5.70
2018-01-11T14:29:55.421Z,5.80
2018-01-11T14:32:23.532Z,5.80
2018-01-11T14:34:55.337Z,5.80
2018-01-11T14:37:23.818Z,5.80
2018-01-11T14:39:54.441Z,5.90
2018-01-11T14:42:21.912Z,5.80
2018-01-11T14:44:49.848Z,5.80
2018-01-11T14:47:17.603Z,5.80
2018-01-11T14:49:45.237Z,5.60
2018-01-11T14:52:14.889Z,5.60
2018-01-11T14:54:43.297Z,5.60
2018-01-11T14:57:10.822Z,5.60
2018-01-11T14:59:38.436Z,5.60
2018-01-11T15:02:05.917Z,5.60
2018-01-11T15:04:33.711Z,5.70
2018-01-11T15:07:01.287Z,5.60
2018-01-11T15:09:28.776Z,5.60
2018-01-11T15:11:56.301Z,5.60
2018-01-11T15:14:24.543Z,5.50
2018-01-11T15:16:52.065Z,5.40
2018-01-11T15:19:20.547Z,5.50
2018-01-11T15:21:48.638Z,5.40
2018-01-11T15:24:16.256Z,5.40
2018-01-11T15:26:43.826Z,5.40
2018-01-11T15:29:19.882Z,5.40
2018-01-11T15:31:47.589Z,5.40
2018-01-11T15:34:15.833Z,5.30
2018-01-11T15:36:51.336Z,5.30
2018-01-11T15:39:19.383Z,5.30
2018-01-11T15:41:47.810Z,5.30
2018-01-11T15:44:15.355Z,5.30
2018-01-11T15:46:43.275Z,5.30
2018-01-11T15:49:10.984Z,5.30
2018-01-11T15:51:39.234Z,5.30
2018-01-11T15:54:08.246Z,5.30
2018-01-11T15:56:36.278Z,5.40
2018-01-11T15:59:03.797Z,5.40
2018-01-11T16:01:32.874Z,5.30
2018-01-11T16:04:01.341Z,5.40
2018-01-11T16:06:28.858Z,5.40
2018-01-11T16:09:04.971Z,5.40
2018-01-11T16:11:34.867Z,5.40
2018-01-11T16:14:03.680Z,5.40
2018-01-11T16:16:32.744Z,5.40
2018-01-11T16:19:00.212Z,5.40
2018-01-11T16:21:30.748Z,5.40
2018-01-11T16:23:58.242Z,5.40
2018-01-11T16:26:26.272Z,5.40
2018-01-11T16:28:54.401Z,5.50
2018-01-11T16:31:21.901Z,5.50
2018-01-11T16:33:49.673Z,5.50
2018-01-11T16:36:18.657Z,5.50
2018-01-11T16:38:53.989Z,5.50
2018-01-11T16:41:21.792Z,5.50
2018-01-11T16:43:49.253Z,5.40
2018-01-11T16:46:17.076Z,5.40
2018-01-11T16:48:44.704Z,5.20
2018-01-11T16:51:16.296Z,5.10
2018-01-11T16:53:43.748Z,5.10
2018-01-11T16:56:11.641Z,5.10
2018-01-11T16:58:39.183Z,5.10
2018-01-11T17:01:09.320Z,5.20
2018-01-11T17:03:36.800Z,5.30
2018-01-11T17:06:08.424Z,5.40
2018-01-11T17:08:41.136Z,5.40
2018-01-11T17:11:10.588Z,5.40
2018-01-11T17:13:38.461Z,5.40
2018-01-11T17:16:05.983Z,5.30
2018-01-11T17:18:34.009Z,5.40
2018-01-11T17:21:01.459Z,5.40
2018-01-11T17:23:32.921Z,5.40
2018-01-11T17:26:03.604Z,5.40
2018-01-11T17:28:32.888Z,5.40
2018-01-11T17:31:00.489Z,5.50
2018-01-11T17:33:28.248Z,5.50
2018-01-11T17:35:58.447Z,5.30
2018-01-11T17:38:26.183Z,5.30
2018-01-11T17:41:02.310Z,5.30
2018-01-11T17:43:30.289Z,5.30
2018-01-11T17:45:57.845Z,5.30
2018-01-11T17:48:25.292Z,5.30
2018-01-11T17:50:52.973Z,5.30
2018-01-11T17:53:22.122Z,5.20
2018-01-11T17:55:51.804Z,5.20
2018-01-11T17:58:21.759Z,5.20
2018-01-11T18:00:49.346Z,5.10
2018-01-11T18:03:18.068Z,5.10
2018-01-11T18:05:47.942Z,5.00
2018-01-11T18:08:15.428Z,5.10
2018-01-11T18:10:46.287Z,5.10
2018-01-11T18:13:14.716Z,5.10
2018-01-11T18:15:42.280Z,5.20
2018-01-11T18:18:09.786Z,5.20
2018-01-11T18:20:37.242Z,5.10
2018-01-11T18:23:04.954Z,5.20
2018-01-11T18:25:36.215Z,5.20
2018-01-11T18:28:06.719Z,4.90
2018-01-11T18:30:34.658Z,4.90
2018-01-11T18:33:02.682Z,5.00
2018-01-11T18:35:30.924Z,5.10
2018-01-11T18:37:58.551Z,5.10
2018-01-11T18:40:28.933Z,5.10
2018-01-11T18:42:56.531Z,5.10
2018-01-11T18:45:24.128Z,5.20
2018-01-11T18:47:51.894Z,5.20
2018-01-11T18:50:19.342Z,5.30
2018-01-11T18:52:46.824Z,5.30
2018-01-11T18:55:14.305Z,5.30
2018-01-11T18:57:41.774Z,5.20
2018-01-11T19:00:09.354Z,5.20
2018-01-11T19:02:38.689Z,5.20
2018-01-11T19:05:06.168Z,5.20
2018-01-11T19:07:34.329Z,5.20
2018-01-11T19:10:03.365Z,5.20
2018-01-11T19:12:31.014Z,5.10
2018-01-11T19:14:58.452Z,5.10
2018-01-11T19:17:25.944Z,5.20
2018-01-11T19:19:53.400Z,5.10
2018-01-11T19:22:20.942Z,5.00
2018-01-11T19:24:48.696Z,4.90
2018-01-11T19:27:16.457Z,4.80
2018-01-11T19:29:43.937Z,4.60
2018-01-11T19:32:11.394Z,4.70
2018-01-11T19:34:39.128Z,4.80
2018-01-11T19:37:06.569Z,4.80
2018-01-11T19:39:34.069Z,4.80
2018-01-11T19:42:01.651Z,4.80
2018-01-11T19:44:29.925Z,4.90
2018-01-11T19:46:57.381Z,4.90
2018-01-11T19:49:24.865Z,4.90
2018-01-11T19:51:52.353Z,4.90
2018-01-11T19:54:20.649Z,5.00
2018-01-11T19:56:51.486Z,5.00
2018-01-11T19:59:19.716Z,5.00
2018-01-11T20:01:47.198Z,5.00
2018-01-11T20:04:14.670Z,5.00
2018-01-11T20:06:42.134Z,4.90
2018-01-11T20:09:09.618Z,5.00
2018-01-11T20:11:37.072Z,4.90
2018-01-11T20:14:04.548Z,4.90
2018-01-11T20:16:34.494Z,5.00
2018-01-11T20:19:01.928Z,5.00
2018-01-11T20:21:29.454Z,5.00
2018-01-11T20:23:59.325Z,4.90
2018-01-11T20:26:27.088Z,4.90
2018-01-11T20:28:54.845Z,4.90
2018-01-11T20:31:26.847Z,4.80
2018-01-11T20:33:54.336Z,4.80
2018-01-11T20:36:21.860Z,4.70
2018-01-11T20:38:49.525Z,4.60
2018-01-11T20:41:17.515Z,4.70
2018-01-11T20:43:45.013Z,4.60
2018-01-11T20:46:12.612Z,4.60
2018-01-11T20:48:40.086Z,4.70
2018-01-11T20:51:07.541Z,4.70
2018-01-11T20:53:37.314Z,4.60
2018-01-11T20:56:04.801Z,4.40
2018-01-11T20:58:37.110Z,4.40
2018-01-11T21:01:04.593Z,4.40
2018-01-11T21:03:32.111Z,4.50
2018-01-11T21:05:59.605Z,4.40
2018-01-11T21:08:27.109Z,4.40
2018-01-11T21:10:54.569Z,4.50
2018-01-11T21:13:22.308Z,4.60
2018-01-11T21:15:49.774Z,4.60
2018-01-11T21:18:17.245Z,4.60
2018-01-11T21:20:51.631Z,4.50
2018-01-11T21:23:19.104Z,4.40
2018-01-11T21:25:46.669Z,4.40
2018-01-11T21:28:14.284Z,4.40
2018-01-11T21:30:42.081Z,4.30
2018-01-11T21:33:09.660Z,4.40
2018-01-11T21:35:37.109Z,4.40
2018-01-11T21:38:04.565Z,4.40
2018-01-11T21:40:32.087Z,4.50
2018-01-11T21:43:03.407Z,4.40
2018-01-11T21:45:32.664Z,4.40
2018-01-11T21:48:00.964Z,4.40
2018-01-11T21:50:28.433Z,4.40
2018-01-11T21:52:55.921Z,4.50
2018-01-11T21:55:23.477Z,4.50
2018-01-11T21:57:51.311Z,4.60
2018-01-11T22:00:19.697Z,4.50
2018-01-11T22:02:47.467Z,4.50
2018-01-11T22:05:14.925Z,4.50
2018-01-11T22:07:42.601Z,4.50
2018-01-11T22:10:10.169Z,4.60
2018-01-11T22:12:37.653Z,4.70
2018-01-11T22:15:05.872Z,4.70
2018-01-11T22:17:33.702Z,4.70
2018-01-11T22:20:01.229Z,4.70
2018-01-11T22:22:28.702Z,4.70
2018-01-11T22:24:56.964Z,4.70
2018-01-11T22:27:24.424Z,4.70
2018-01-11T22:29:52.678Z,4.70
2018-01-11T22:32:20.261Z,4.70
2018-01-11T22:34:47.842Z,4.70
2018-01-11T22:37:16.080Z,4.80
2018-01-11T22:39:43.533Z,4.80
2018-01-11T22:42:11.051Z,4.70
2018-01-11T22:44:38.608Z,4.70
2018-01-11T22:47:06.930Z,4.80
2018-01-11T22:49:34.380Z,4.70
2018-01-11T22:52:01.869Z,4.70
2018-01-11T22:54:29.525Z,4.60
2018-01-11T22:56:57.034Z,4.50
2018-01-11T22:59:28.127Z,4.50
2018-01-11T23:01:57.093Z,4.50
2018-01-11T23:04:24.577Z,4.50
2018-01-11T23:06:52.020Z,4.50
2018-01-11T23:09:19.493Z,4.60
2018-01-11T23:11:47.005Z,4.70
2018-01-11T23:14:15.381Z,4.70
2018-01-11T23:16:42.837Z,4.70
2018-01-11T23:19:10.528Z,4.70
2018-01-11T23:21:37.991Z,4.70
2018-01-11T23:24:05.488Z,4.60
2018-01-11T23:26:32.929Z,4.70
2018-01-11T23:29:00.384Z,4.70
2018-01-11T23:31:27.880Z,4.70
2018-01-11T23:33:55.581Z,4.70
2018-01-11T23:36:24.479Z,4.50
2018-01-11T23:38:51.941Z,4.50
2018-01-11T23:41:19.384Z,4.60
2018-01-11T23:43:46.944Z,4.60
2018-01-11T23:46:14.505Z,4.60
2018-01-11T23:48:42.093Z,4.60
2018-01-11T23:51:09.556Z,4.60
2018-01-11T23:53:37.608Z,4.60
2018-01-11T23:56:05.090Z,4.60
2018-01-11T23:58:32.623Z,4.70
